Time;durP1;ratioP1;P1;durP2;ratioP2;P2;SDS_P1;SDS_P2;PMS_P1;PMS_P2;Temp;Humidity;BMP_temperature;BMP_pressure;BME280_temperature;BME280_humidity;BME280_pressure;Samples;Min_cycle;Max_cycle;Signal;HPM_P1;HPM_P2
2021/11/03 00:00:40;;;;;;;0.98;0.40;;;;;;;7.12;100.00;100092.88;5069908;28;20071;-37
2021/11/03 00:03:08;;;;;;;1.77;0.38;;;;;;;7.10;100.00;100094.28;5070916;28;20453;-35
2021/11/03 00:05:39;;;;;;;2.83;0.35;;;;;;;7.08;100.00;100100.13;5070267;28;20370;-33
2021/11/03 00:08:07;;;;;;;1.63;0.40;;;;;;;7.03;100.00;100100.16;5070463;28;20051;-34
2021/11/03 00:10:34;;;;;;;4.60;0.95;;;;;;;7.04;100.00;100104.59;5070200;28;20044;-32
2021/11/03 00:13:03;;;;;;;5.90;1.70;;;;;;;7.06;100.00;100096.81;5070617;28;20048;-35
2021/11/03 00:15:31;;;;;;;3.72;1.50;;;;;;;7.06;100.00;100102.34;5069896;28;20064;-39
2021/11/03 00:17:59;;;;;;;3.80;2.15;;;;;;;7.09;100.00;100104.53;5070546;28;20051;-36
2021/11/03 00:20:26;;;;;;;5.13;2.60;;;;;;;7.10;100.00;100097.06;5069885;28;20040;-32
2021/11/03 00:22:54;;;;;;;3.70;2.65;;;;;;;7.09;100.00;100107.31;5069043;28;20484;-33
2021/11/03 00:25:22;;;;;;;5.97;3.00;;;;;;;7.11;100.00;100110.63;5070548;28;20052;-39
2021/11/03 00:27:50;;;;;;;5.35;3.20;;;;;;;7.15;100.00;100110.88;5070047;28;20051;-36
2021/11/03 00:30:19;;;;;;;5.65;3.15;;;;;;;7.17;100.00;100105.84;5070200;28;20045;-37
2021/11/03 00:32:49;;;;;;;4.53;3.50;;;;;;;7.20;100.00;100117.16;5070578;28;20040;-41
2021/11/03 00:35:17;;;;;;;6.78;3.67;;;;;;;7.24;100.00;100107.13;5069437;28;20056;-36
2021/11/03 00:37:45;;;;;;;7.32;3.40;;;;;;;7.30;100.00;100107.09;5070639;28;20091;-31
2021/11/03 00:40:14;;;;;;;4.10;2.35;;;;;;;7.35;100.00;100104.25;5069051;28;20052;-40
2021/11/03 00:42:41;;;;;;;4.45;2.40;;;;;;;7.42;100.00;100088.03;5068328;28;20494;-38
2021/11/03 00:45:09;;;;;;;6.40;2.70;;;;;;;7.45;100.00;100079.97;5069077;28;20083;-34
2021/11/03 00:47:39;;;;;;;4.38;3.15;;;;;;;7.49;100.00;100077.41;5069952;28;20098;-34
2021/11/03 00:50:08;;;;;;;3.90;2.10;;;;;;;7.49;100.00;100077.41;5068260;28;20067;-37
2021/11/03 00:52:36;;;;;;;6.20;2.88;;;;;;;7.51;100.00;100077.94;5066615;28;20037;-33
2021/11/03 00:55:05;;;;;;;4.28;2.50;;;;;;;7.53;100.00;100084.03;5069146;28;20053;-36
2021/11/03 00:57:34;;;;;;;3.58;2.10;;;;;;;7.56;100.00;100089.00;5067973;28;20075;-39
2021/11/03 01:00:03;;;;;;;3.20;1.95;;;;;;;7.56;100.00;100084.25;5069584;28;20056;-37
2021/11/03 01:02:31;;;;;;;3.83;1.88;;;;;;;7.57;100.00;100085.91;5071448;28;20541;-36
2021/11/03 01:05:00;;;;;;;5.20;2.95;;;;;;;7.57;100.00;100083.16;5072548;28;20071;-39
2021/11/03 01:07:28;;;;;;;4.35;3.03;;;;;;;7.57;100.00;100085.09;5073590;28;20076;-39
2021/11/03 01:09:56;;;;;;;5.50;3.55;;;;;;;7.53;100.00;100081.25;5073235;28;20055;-39
2021/11/03 01:12:24;;;;;;;8.52;5.53;;;;;;;7.47;100.00;100083.25;5073279;28;20123;-38
2021/11/03 01:14:52;;;;;;;8.85;5.93;;;;;;;7.37;100.00;100082.59;5072415;28;20405;-37
2021/11/03 01:17:19;;;;;;;9.82;6.63;;;;;;;7.28;100.00;100076.03;5072933;28;20048;-34
2021/11/03 01:19:47;;;;;;;9.93;6.43;;;;;;;7.21;100.00;100077.19;5072033;28;20050;-31
2021/11/03 01:22:16;;;;;;;8.95;6.25;;;;;;;7.17;100.00;100069.78;5073379;28;20474;-35
2021/11/03 01:24:44;;;;;;;10.20;6.90;;;;;;;7.13;100.00;100075.09;5072686;28;20047;-33
2021/11/03 01:27:12;;;;;;;9.48;6.47;;;;;;;7.11;100.00;100077.34;5073251;28;20410;-36
2021/11/03 01:29:40;;;;;;;12.43;7.38;;;;;;;7.05;100.00;100067.41;5071651;28;20049;-37
2021/11/03 01:32:08;;;;;;;11.77;7.93;;;;;;;7.03;100.00;100075.19;5059313;28;20459;-38
2021/11/03 01:34:36;;;;;;;7.18;5.25;;;;;;;7.01;100.00;100066.34;5073272;28;20043;-38
2021/11/03 01:37:04;;;;;;;5.95;4.43;;;;;;;7.01;100.00;100073.84;5071591;28;20060;-36
2021/11/03 01:39:36;;;;;;;5.65;4.13;;;;;;;6.99;100.00;100063.06;5071133;28;20070;-31
2021/11/03 01:42:05;;;;;;;4.50;3.53;;;;;;;6.99;100.00;100067.78;5071551;28;20049;-32
2021/11/03 01:44:33;;;;;;;4.63;3.33;;;;;;;6.97;100.00;100079.19;5073100;28;20044;-34
2021/11/03 01:47:33;;;;;;;4.95;3.67;;;;;;;6.97;100.00;100081.94;5070974;28;20098;-37
2021/11/03 01:50:02;;;;;;;4.28;2.88;;;;;;;6.93;100.00;100075.34;5066382;28;20145;-35
2021/11/03 01:52:29;;;;;;;4.78;3.40;;;;;;;6.93;100.00;100074.50;5070628;28;20052;-34
2021/11/03 01:54:59;;;;;;;9.50;6.30;;;;;;;6.92;100.00;100082.00;5073087;28;20040;-35
2021/11/03 01:57:34;;;;;;;7.60;5.10;;;;;;;6.90;100.00;100076.75;5071974;28;20449;-36
2021/11/03 02:00:12;;;;;;;10.35;7.93;;;;;;;6.86;100.00;100083.16;5070661;28;20158;-37
2021/11/03 02:02:52;;;;;;;9.73;6.95;;;;;;;6.81;100.00;100083.22;5072568;28;20040;-38
2021/11/03 02:05:20;;;;;;;9.57;6.30;;;;;;;6.78;100.00;100090.19;5072722;28;20044;-31
2021/11/03 02:07:52;;;;;;;10.50;7.35;;;;;;;6.76;100.00;100086.88;5072145;28;20084;-41
2021/11/03 02:10:22;;;;;;;10.35;7.78;;;;;;;6.71;100.00;100086.09;5071002;28;20055;-38
2021/11/03 02:12:52;;;;;;;10.38;7.43;;;;;;;6.66;100.00;100086.16;5070352;28;20048;-37
2021/11/03 02:15:21;;;;;;;12.23;8.30;;;;;;;6.62;100.00;100085.06;5070557;28;20553;-39
2021/11/03 02:17:52;;;;;;;9.88;7.35;;;;;;;6.59;100.00;100092.06;5071535;28;20048;-36
2021/11/03 02:20:23;;;;;;;13.13;9.43;;;;;;;6.53;100.00;100088.50;5069810;28;20056;-30
2021/11/03 02:23:06;;;;;;;13.40;8.60;;;;;;;6.50;100.00;100083.53;5071187;28;20598;-34
2021/11/03 02:25:42;;;;;;;15.77;10.27;;;;;;;6.43;100.00;100083.03;5071114;28;20045;-36
2021/11/03 02:28:10;;;;;;;14.48;9.50;;;;;;;6.36;100.00;100073.41;5070640;28;20056;-35
2021/11/03 02:30:38;;;;;;;9.60;6.38;;;;;;;6.34;100.00;100070.09;5070421;28;20044;-37
2021/11/03 02:33:09;;;;;;;9.35;6.20;;;;;;;6.32;100.00;100077.88;5072096;28;20426;-38
2021/11/03 02:35:39;;;;;;;12.48;8.65;;;;;;;6.30;100.00;100072.63;5069558;28;20056;-35
2021/11/03 02:38:08;;;;;;;9.57;6.00;;;;;;;6.28;100.00;100068.50;5070726;28;20127;-33
2021/11/03 02:40:42;;;;;;;7.05;5.10;;;;;;;6.26;100.00;100063.22;5071344;28;20047;-34
2021/11/03 02:43:18;;;;;;;8.13;5.65;;;;;;;6.25;100.00;100063.53;5059163;28;20041;-36
2021/11/03 02:45:49;;;;;;;7.70;5.70;;;;;;;6.20;100.00;100067.16;5070273;28;20139;-33
2021/11/03 02:48:18;;;;;;;8.95;6.28;;;;;;;6.17;100.00;100063.03;5070260;28;20897;-34
2021/11/03 02:51:10;;;;;;;8.48;5.70;;;;;;;6.13;100.00;100069.44;5069874;28;20095;-34
2021/11/03 02:53:43;;;;;;;8.82;5.43;;;;;;;6.06;100.00;100058.69;5058332;28;20139;-36
2021/11/03 02:56:14;;;;;;;8.27;5.13;;;;;;;6.03;100.00;100064.78;5069523;28;20045;-32
2021/11/03 02:58:42;;;;;;;6.18;4.30;;;;;;;5.99;100.00;100065.69;5059065;28;20502;-33
2021/11/03 03:01:20;;;;;;;5.78;4.47;;;;;;;5.96;100.00;100072.63;5071169;28;20052;-35
2021/11/03 03:03:49;;;;;;;5.68;4.13;;;;;;;5.93;100.00;100078.72;5070963;28;20147;-31
2021/11/03 03:06:22;;;;;;;5.78;4.15;;;;;;;5.90;100.00;100078.47;5071038;28;20056;-36
2021/11/03 03:08:52;;;;;;;6.00;4.15;;;;;;;5.87;100.00;100074.31;5070340;28;20464;-34
2021/11/03 03:11:22;;;;;;;5.32;3.80;;;;;;;5.83;100.00;100082.34;5070182;28;20052;-38
2021/11/03 03:13:50;;;;;;;8.27;6.03;;;;;;;5.78;100.00;100084.34;5067030;28;20375;-32
2021/11/03 03:16:19;;;;;;;7.13;4.32;;;;;;;5.74;100.00;100077.72;5070607;28;20062;-37
2021/11/03 03:18:48;;;;;;;5.55;3.92;;;;;;;5.69;100.00;100084.13;5068825;28;20102;-37
2021/11/03 03:21:17;;;;;;;7.13;4.40;;;;;;;5.65;100.00;100082.19;5069834;28;20067;-34
2021/11/03 03:23:49;;;;;;;8.82;5.97;;;;;;;5.61;100.00;100078.34;5068705;28;20136;-37
2021/11/03 03:26:20;;;;;;;9.90;6.53;;;;;;;5.59;100.00;100075.88;5069463;28;20159;-34
2021/11/03 03:28:51;;;;;;;9.75;7.43;;;;;;;5.56;100.00;100067.31;5069711;28;20056;-32
2021/11/03 03:31:20;;;;;;;12.88;8.52;;;;;;;5.51;100.00;100077.31;5069252;28;20405;-35
2021/11/03 03:33:50;;;;;;;11.57;8.15;;;;;;;5.50;100.00;100080.34;5070757;28;20044;-37
2021/11/03 03:36:22;;;;;;;14.85;10.88;;;;;;;5.45;100.00;100075.66;5070713;28;20125;-37
2021/11/03 03:38:51;;;;;;;17.63;11.38;;;;;;;5.43;100.00;100080.66;5069029;28;20054;-38
2021/11/03 03:41:23;;;;;;;11.85;8.73;;;;;;;5.43;100.00;100079.81;5069657;28;20457;-31
2021/11/03 03:43:53;;;;;;;13.85;10.50;;;;;;;5.41;100.00;100079.28;5069815;28;20045;-38
2021/11/03 03:46:21;;;;;;;12.63;8.48;;;;;;;5.39;100.00;100084.28;5068878;28;20555;-37
2021/11/03 03:48:50;;;;;;;10.75;8.25;;;;;;;5.37;100.00;100083.75;5070670;28;20468;-34
2021/11/03 03:51:19;;;;;;;9.20;6.35;;;;;;;5.38;100.00;100085.41;5068769;28;20103;-31
2021/11/03 03:53:48;;;;;;;9.77;7.20;;;;;;;5.38;100.00;100088.16;5069423;28;20102;-31
2021/11/03 03:56:19;;;;;;;9.82;6.10;;;;;;;5.37;100.00;100087.34;5069668;28;20067;-35
2021/11/03 03:58:48;;;;;;;9.50;7.43;;;;;;;5.37;100.00;100089.28;5068770;28;20071;-33
2021/11/03 04:01:20;;;;;;;9.77;7.18;;;;;;;5.36;100.00;100095.91;5069496;28;20079;-37
2021/11/03 04:03:53;;;;;;;7.45;5.22;;;;;;;5.34;100.00;100098.13;5068455;28;20047;-33
2021/11/03 04:06:22;;;;;;;7.35;5.30;;;;;;;5.31;100.00;100096.75;5069045;28;20057;-32
2021/11/03 04:08:51;;;;;;;8.27;5.95;;;;;;;5.30;100.00;100094.28;5069168;28;20048;-33
2021/11/03 04:11:20;;;;;;;9.35;5.75;;;;;;;5.26;100.00;100096.78;5069396;28;20501;-36
2021/11/03 04:13:48;;;;;;;6.95;4.72;;;;;;;5.25;100.00;100094.28;5068274;28;20079;-38
2021/11/03 04:16:16;;;;;;;5.97;4.18;;;;;;;5.23;100.00;100102.03;5069122;28;20140;-35
2021/11/03 04:18:46;;;;;;;6.97;4.53;;;;;;;5.20;100.00;100104.25;5070587;28;20041;-35
2021/11/03 04:21:15;;;;;;;5.93;4.30;;;;;;;5.15;100.00;100096.00;5068849;28;20048;-34
2021/11/03 04:23:45;;;;;;;7.60;5.13;;;;;;;5.11;100.00;100097.66;5069138;28;20489;-38
2021/11/03 04:26:25;;;;;;;7.82;5.53;;;;;;;5.08;100.00;100106.53;5066010;28;20059;-36
2021/11/03 04:28:53;;;;;;;8.57;6.28;;;;;;;5.03;100.00;100106.53;5068780;28;20048;-33
2021/11/03 04:31:22;;;;;;;5.00;3.70;;;;;;;5.01;100.00;100105.97;5069107;28;20062;-33
2021/11/03 04:33:54;;;;;;;6.78;4.93;;;;;;;5.00;100.00;100101.56;5068524;28;20045;-29
2021/11/03 04:36:26;;;;;;;7.10;5.10;;;;;;;4.98;100.00;100094.69;5071362;28;20480;-34
2021/11/03 04:38:58;;;;;;;7.88;4.43;;;;;;;4.95;100.00;100107.13;5072713;28;20041;-37
2021/11/03 04:41:28;;;;;;;6.00;4.45;;;;;;;4.94;100.00;100107.41;5072104;28;20052;-28
2021/11/03 04:43:56;;;;;;;5.55;4.13;;;;;;;4.94;100.00;100108.22;5074101;28;20094;-32
2021/11/03 04:46:24;;;;;;;6.75;5.00;;;;;;;4.91;100.00;100106.03;5072719;28;20059;-32
2021/11/03 04:48:53;;;;;;;8.80;6.05;;;;;;;4.89;100.00;100105.47;5071927;28;20044;-36
2021/11/03 04:51:22;;;;;;;6.30;4.43;;;;;;;4.86;100.00;100108.78;5073757;28;20409;-38
2021/11/03 04:53:50;;;;;;;8.40;6.50;;;;;;;4.84;100.00;100111.00;5073537;28;20062;-37
2021/11/03 04:56:24;;;;;;;6.43;4.38;;;;;;;4.80;100.00;100110.72;5071992;28;20094;-36
2021/11/03 04:58:56;;;;;;;6.35;4.78;;;;;;;4.75;100.00;100107.19;5073549;28;20044;-31
2021/11/03 05:01:24;;;;;;;6.40;4.10;;;;;;;4.72;100.00;100113.25;5073642;28;20088;-35
2021/11/03 05:03:56;;;;;;;7.32;5.15;;;;;;;4.68;100.00;100112.97;5071712;28;20051;-31
2021/11/03 05:06:30;;;;;;;6.20;4.60;;;;;;;4.65;100.00;100115.47;5072132;28;20052;-36
2021/11/03 05:09:00;;;;;;;8.45;5.82;;;;;;;4.60;100.00;100109.94;5071782;28;20048;-37
2021/11/03 05:11:28;;;;;;;6.78;4.97;;;;;;;4.61;100.00;100119.88;5072174;28;20414;-31
2021/11/03 05:13:56;;;;;;;6.38;4.50;;;;;;;4.58;100.00;100128.75;5072264;28;20080;-33
2021/11/03 05:16:27;;;;;;;9.02;7.35;;;;;;;4.54;100.00;100116.59;5067765;28;20044;-31
2021/11/03 05:18:57;;;;;;;6.68;4.47;;;;;;;4.51;100.00;100117.97;5072138;28;20048;-34
2021/11/03 05:21:27;;;;;;;7.53;5.55;;;;;;;4.48;100.00;100122.13;5070832;28;20102;-37
2021/11/03 05:23:58;;;;;;;;;;;;;;;4.41;100.00;100127.09;5071995;28;20147;-39
2021/11/03 05:26:27;;;;;;;11.57;7.85;;;;;;;4.37;100.00;100127.94;5072816;28;20385;-37
2021/11/03 05:28:58;;;;;;;12.70;7.97;;;;;;;4.40;100.00;100130.94;5073437;28;20059;-37
2021/11/03 05:31:26;;;;;;;15.65;9.55;;;;;;;4.41;100.00;100129.84;5072236;28;20135;-35
2021/11/03 05:33:55;;;;;;;12.15;7.35;;;;;;;4.43;100.00;100135.91;5066157;28;20048;-34
2021/11/03 05:36:25;;;;;;;10.25;6.88;;;;;;;4.43;100.00;100138.69;5072529;28;20055;-30
2021/11/03 05:38:55;;;;;;;11.77;8.07;;;;;;;4.45;100.00;100141.16;5072570;28;20040;-36
2021/11/03 05:41:23;;;;;;;7.28;5.43;;;;;;;4.44;100.00;100137.59;5072816;28;20082;-35
2021/11/03 05:43:51;;;;;;;8.80;6.00;;;;;;;4.43;100.00;100141.44;5072302;28;20421;-37
2021/11/03 05:46:31;;;;;;;9.23;6.68;;;;;;;4.41;100.00;100138.13;5072373;28;20048;-39
2021/11/03 05:49:05;;;;;;;7.80;5.15;;;;;;;4.38;100.00;100143.41;5069906;28;20055;-34
2021/11/03 05:51:34;;;;;;;7.10;5.50;;;;;;;4.34;100.00;100140.34;5072006;28;20044;-36
2021/11/03 05:54:04;;;;;;;9.23;6.47;;;;;;;4.34;100.00;100143.13;5072453;28;20048;-35
2021/11/03 05:56:32;;;;;;;10.95;7.93;;;;;;;4.35;100.00;100143.94;5071172;28;20084;-32
2021/11/03 05:59:00;;;;;;;10.93;8.25;;;;;;;4.34;100.00;100148.66;5071954;28;20041;-37
2021/11/03 06:01:28;;;;;;;12.50;8.50;;;;;;;4.36;100.00;100149.19;5072571;28;20386;-36
2021/11/03 06:03:56;;;;;;;13.13;9.77;;;;;;;4.36;100.00;100149.19;5072265;28;20398;-32
2021/11/03 06:06:24;;;;;;;13.15;8.98;;;;;;;4.39;100.00;100147.81;5071918;28;20063;-33
2021/11/03 06:08:53;;;;;;;14.65;9.88;;;;;;;4.40;100.00;100146.69;5072233;28;20053;-32
2021/11/03 06:11:26;;;;;;;9.10;6.22;;;;;;;4.39;100.00;100148.66;5072251;28;20041;-35
2021/11/03 06:13:54;;;;;;;13.57;8.50;;;;;;;4.37;100.00;100145.34;5071517;28;20075;-33
2021/11/03 06:16:23;;;;;;;8.48;6.07;;;;;;;4.42;100.00;100152.78;5071909;28;20052;-38
2021/11/03 06:18:52;;;;;;;7.47;5.10;;;;;;;4.40;100.00;100153.03;5071891;28;20049;-36
2021/11/03 06:21:20;;;;;;;7.47;5.47;;;;;;;4.37;100.00;100158.31;5070872;28;20135;-34
2021/11/03 06:23:47;;;;;;;7.93;6.18;;;;;;;4.33;100.00;100149.75;5070890;28;20033;-31
2021/11/03 06:26:18;;;;;;;5.82;3.88;;;;;;;4.30;100.00;100157.75;5071563;28;20048;-34
2021/11/03 06:28:47;;;;;;;6.60;3.80;;;;;;;4.28;100.00;100160.78;5071759;28;20512;-30
2021/11/03 06:31:15;;;;;;;7.63;5.05;;;;;;;4.25;100.00;100157.72;5071699;28;20114;-30
2021/11/03 06:33:43;;;;;;;8.73;6.75;;;;;;;4.23;100.00;100165.47;5070258;28;20045;-31
2021/11/03 06:36:13;;;;;;;10.07;7.07;;;;;;;4.24;100.00;100162.44;5071152;28;20118;-33
2021/11/03 06:38:41;;;;;;;13.27;8.75;;;;;;;4.24;100.00;100164.38;5070791;28;20040;-35
2021/11/03 06:41:09;;;;;;;8.82;6.85;;;;;;;4.25;100.00;100163.25;5070690;28;20501;-36
2021/11/03 06:43:39;;;;;;;9.75;6.68;;;;;;;4.24;100.00;100165.19;5070347;28;20290;-35
2021/11/03 06:46:08;;;;;;;9.75;6.93;;;;;;;4.23;100.00;100159.94;5070522;28;20045;-35
2021/11/03 06:48:36;;;;;;;6.43;4.57;;;;;;;4.22;100.00;100163.81;5070335;28;20509;-35
2021/11/03 06:51:04;;;;;;;6.07;4.07;;;;;;;4.22;100.00;100163.81;5071725;28;20049;-34
2021/11/03 06:53:33;;;;;;;6.72;4.72;;;;;;;4.20;100.00;100166.84;5071388;28;20051;-31
2021/11/03 06:56:01;;;;;;;5.75;3.90;;;;;;;4.19;100.00;100167.97;5069702;28;20040;-35
2021/11/03 06:58:29;;;;;;;7.25;5.55;;;;;;;4.18;100.00;100176.53;5070717;28;20045;-38
2021/11/03 07:00:58;;;;;;;8.80;6.07;;;;;;;4.18;100.00;100179.28;5070910;28;20053;-34
2021/11/03 07:03:29;;;;;;;8.13;5.60;;;;;;;4.19;100.00;100181.78;5070952;28;20045;-35
2021/11/03 07:05:57;;;;;;;7.68;5.72;;;;;;;4.21;100.00;100174.00;5071416;28;20063;-33
2021/11/03 07:08:26;;;;;;;10.15;6.38;;;;;;;4.24;100.00;100173.47;5070707;28;20059;-38
2021/11/03 07:10:56;;;;;;;7.80;5.40;;;;;;;4.28;100.00;100180.13;5071188;28;20036;-35
2021/11/03 07:13:26;;;;;;;7.57;4.70;;;;;;;4.31;100.00;100179.56;5071363;28;20036;-31
2021/11/03 07:15:54;;;;;;;10.48;7.78;;;;;;;4.35;100.00;100177.09;5070701;28;20055;-37
2021/11/03 07:18:24;;;;;;;7.50;5.45;;;;;;;4.41;100.00;100184.25;5071147;28;20136;-30
2021/11/03 07:20:53;;;;;;;8.52;5.85;;;;;;;4.46;100.00;100182.34;5070931;28;20048;-34
2021/11/03 07:23:23;;;;;;;10.50;6.38;;;;;;;4.53;100.00;100189.53;5070475;28;20052;-29
2021/11/03 07:25:52;;;;;;;10.85;7.43;;;;;;;4.59;100.00;100196.72;5070947;28;20532;-40
2021/11/03 07:28:20;;;;;;;10.38;7.50;;;;;;;4.67;100.00;100188.69;5071076;28;20053;-34
2021/11/03 07:30:48;;;;;;;8.38;6.30;;;;;;;4.75;100.00;100193.69;5070358;28;20043;-31
2021/11/03 07:33:17;;;;;;;10.88;7.18;;;;;;;4.85;100.00;100190.06;5071031;28;20049;-37
2021/11/03 07:35:45;;;;;;;8.98;6.80;;;;;;;4.93;100.00;100206.09;5070525;28;20055;-33
2021/11/03 07:38:15;;;;;;;9.82;7.50;;;;;;;5.02;100.00;100203.59;5069217;28;20454;-33
2021/11/03 07:40:46;;;;;;;11.20;7.50;;;;;;;5.08;100.00;100203.31;5070885;28;20054;-31
2021/11/03 07:43:17;;;;;;;9.60;7.07;;;;;;;5.17;100.00;100198.06;5060617;28;20051;-34
2021/11/03 07:45:47;;;;;;;9.60;6.93;;;;;;;5.28;100.00;100207.13;5070369;28;20075;-35
2021/11/03 07:48:15;;;;;;;9.48;5.60;;;;;;;5.39;100.00;100206.03;5070926;28;20052;-35
2021/11/03 07:50:46;;;;;;;10.82;7.40;;;;;;;5.53;100.00;100204.31;5069831;28;20520;-35
2021/11/03 07:53:17;;;;;;;11.85;6.47;;;;;;;5.71;100.00;100208.38;5071162;28;20058;-35
2021/11/03 07:55:48;;;;;;;7.38;5.53;;;;;;;6.01;100.00;100196.34;5070760;28;20048;-32
2021/11/03 07:58:18;;;;;;;8.80;6.13;;;;;;;6.38;100.00;100202.25;5066949;28;20049;-33
2021/11/03 08:00:50;;;;;;;7.53;5.68;;;;;;;6.79;100.00;100210.25;5069409;28;20417;-37
2021/11/03 08:03:18;;;;;;;8.57;6.13;;;;;;;7.18;100.00;100207.41;5069564;28;20059;-34
2021/11/03 08:05:49;;;;;;;7.43;5.40;;;;;;;7.56;100.00;100200.03;5070057;28;20037;-38
2021/11/03 08:08:24;;;;;;;8.60;6.22;;;;;;;7.97;100.00;100210.66;5070795;28;20512;-33
2021/11/03 08:10:54;;;;;;;6.53;4.35;;;;;;;8.31;100.00;100202.94;5074046;28;20123;-34
2021/11/03 08:13:26;;;;;;;7.40;5.22;;;;;;;8.70;100.00;100207.38;5073760;28;20048;-38
2021/11/03 08:15:56;;;;;;;5.72;4.75;;;;;;;9.14;100.00;100212.47;5074352;28;20037;-37
2021/11/03 08:18:27;;;;;;;7.10;5.15;;;;;;;9.61;100.00;100214.06;5073410;28;20416;-38
2021/11/03 08:20:55;;;;;;;6.80;5.00;;;;;;;10.10;100.00;100213.34;5074170;28;20036;-36
2021/11/03 08:23:24;;;;;;;5.70;3.80;;;;;;;10.62;100.00;100202.69;5074488;28;20144;-36
2021/11/03 08:25:53;;;;;;;6.53;4.03;;;;;;;11.13;100.00;100207.03;5073786;28;20520;-37
2021/11/03 08:28:20;;;;;;;6.28;4.38;;;;;;;11.65;100.00;100208.13;5074171;28;20047;-40
2021/11/03 08:30:51;;;;;;;4.80;3.30;;;;;;;12.13;100.00;100207.31;5074480;28;20033;-39
2021/11/03 08:33:24;;;;;;;5.20;3.40;;;;;;;12.64;100.00;100209.34;5073637;28;20043;-38
2021/11/03 08:35:54;;;;;;;5.10;3.13;;;;;;;13.12;100.00;100209.16;5074090;28;21196;-39
2021/11/03 08:38:44;;;;;;;4.75;2.60;;;;;;;13.70;100.00;100205.75;5068297;28;20120;-34
2021/11/03 08:41:12;;;;;;;4.30;2.55;;;;;;;14.05;99.88;100199.94;5073796;28;20056;-37
2021/11/03 08:43:45;;;;;;;3.85;2.28;;;;;;;14.37;97.74;100204.06;5073672;28;20047;-32
2021/11/03 08:46:14;;;;;;;6.90;2.40;;;;;;;14.62;95.63;100199.44;5072784;28;20045;-34
2021/11/03 08:48:51;;;;;;;3.00;2.00;;;;;;;15.02;95.26;100203.38;5073386;28;20044;-38
2021/11/03 08:51:19;;;;;;;3.38;1.90;;;;;;;15.40;91.75;100200.31;5073847;28;20482;-38
2021/11/03 08:53:53;;;;;;;4.88;2.10;;;;;;;15.71;89.02;100204.66;5073333;28;20427;-35
2021/11/03 08:56:22;;;;;;;3.47;2.25;;;;;;;16.04;88.43;100201.72;5073615;28;20060;-40
2021/11/03 08:58:50;;;;;;;3.67;2.13;;;;;;;16.40;85.91;100206.50;5070381;28;20050;-42
2021/11/03 09:01:19;;;;;;;3.40;1.95;;;;;;;16.71;84.18;100208.72;5073474;28;20092;-36
2021/11/03 09:03:47;;;;;;;5.15;2.70;;;;;;;16.98;82.65;100202.28;5072754;28;20041;-37
2021/11/03 09:06:15;;;;;;;3.97;2.70;;;;;;;17.29;81.57;100207.19;5073989;28;20127;-38
2021/11/03 09:08:46;;;;;;;4.38;3.03;;;;;;;17.55;80.16;100206.69;5072915;28;20045;-41
2021/11/03 09:11:16;;;;;;;4.37;2.67;;;;;;;17.75;77.97;100211.31;5073719;28;20402;-41
2021/11/03 09:13:43;;;;;;;6.95;3.25;;;;;;;17.94;77.56;100209.75;5073116;28;20760;-38
2021/11/03 09:16:11;;;;;;;4.40;3.40;;;;;;;18.10;74.90;100207.75;5072867;28;20413;-37
2021/11/03 09:18:39;;;;;;;5.03;3.17;;;;;;;18.20;75.07;100210.81;5073354;28;20075;-42
2021/11/03 09:21:09;;;;;;;5.22;3.30;;;;;;;18.38;73.71;100216.09;5072643;28;20051;-35
2021/11/03 09:23:42;;;;;;;5.53;2.90;;;;;;;18.47;72.81;100219.50;5072763;28;20397;-41
2021/11/03 09:26:10;;;;;;;7.10;2.33;;;;;;;18.44;70.75;100223.91;5069786;28;20060;-39
2021/11/03 09:28:40;;;;;;;4.47;2.58;;;;;;;18.16;71.18;100223.22;5073113;28;20096;-37
2021/11/03 09:31:09;;;;;;;3.00;1.85;;;;;;;18.01;71.51;100219.22;5072517;28;20052;-35
2021/11/03 09:33:39;;;;;;;4.30;2.30;;;;;;;18.02;70.62;100228.50;5073271;28;20052;-42
2021/11/03 09:36:12;;;;;;;4.90;2.55;;;;;;;17.86;69.09;100226.50;5072346;28;20060;-38
2021/11/03 09:38:40;;;;;;;3.50;2.17;;;;;;;17.77;68.27;100220.22;5073012;28;20490;-40
2021/11/03 09:41:13;;;;;;;3.47;2.17;;;;;;;17.49;68.80;100228.72;5072658;28;20048;-40
2021/11/03 09:43:46;;;;;;;3.97;2.70;;;;;;;17.23;69.77;100225.53;5072635;28;20095;-39
2021/11/03 09:46:19;;;;;;;3.63;2.58;;;;;;;17.14;71.65;100239.00;5072960;28;20048;-41
2021/11/03 09:48:52;;;;;;;3.70;2.83;;;;;;;17.32;72.17;100248.78;5073116;28;20127;-40
2021/11/03 09:51:24;;;;;;;3.15;1.85;;;;;;;17.36;70.88;100246.88;5072129;28;20044;-36
2021/11/03 09:53:54;;;;;;;2.15;1.50;;;;;;;17.10;70.80;100249.34;5058142;28;20379;-41
2021/11/03 09:56:25;;;;;;;2.88;1.20;;;;;;;16.70;71.65;100249.34;5072989;28;20512;-41
2021/11/03 09:59:05;;;;;;;2.05;0.80;;;;;;;16.14;71.33;100247.13;5072337;28;20041;-34
2021/11/03 10:01:44;;;;;;;1.70;0.50;;;;;;;15.52;72.58;100265.06;5066383;28;20418;-33
2021/11/03 10:04:52;;;;;;;1.38;0.30;;;;;;;15.00;73.31;100259.09;5058510;28;20048;-42
2021/11/03 10:07:32;;;;;;;3.00;0.50;;;;;;;14.54;75.45;100267.72;5055165;28;20055;-34
2021/11/03 10:10:09;;;;;;;1.92;0.40;;;;;;;14.16;76.61;100276.97;5072406;28;20387;-39
2021/11/03 10:12:36;;;;;;;1.27;0.30;;;;;;;13.84;77.30;100272.81;5070992;28;20051;-40
2021/11/03 10:15:06;;;;;;;0.98;0.35;;;;;;;13.54;78.06;100268.31;5072189;28;20037;-36
2021/11/03 10:17:34;;;;;;;0.90;0.30;;;;;;;13.26;79.04;100271.47;5072399;28;20053;-34
2021/11/03 10:20:29;;;;;;;0.65;0.20;;;;;;;13.03;79.92;100269.97;5071557;28;20048;-36
2021/11/03 10:23:07;;;;;;;1.30;0.40;;;;;;;12.79;80.91;100278.06;5071163;28;20041;-34
2021/11/03 10:25:35;;;;;;;1.92;0.60;;;;;;;12.63;81.83;100289.72;5071962;28;20358;-33
2021/11/03 10:28:03;;;;;;;2.10;0.70;;;;;;;12.47;82.43;100288.53;5071962;28;20059;-36
2021/11/03 10:30:37;;;;;;;2.28;0.75;;;;;;;12.37;83.27;100286.06;5072062;28;20041;-32
2021/11/03 10:33:15;;;;;;;1.77;0.60;;;;;;;12.27;84.15;100283.53;5071343;28;20494;-39
2021/11/03 10:35:55;;;;;;;1.20;0.38;;;;;;;12.18;84.97;100277.13;5071660;28;20163;-37
2021/11/03 10:38:26;;;;;;;0.90;0.30;;;;;;;12.11;85.44;100276.75;5071884;28;20044;-34
2021/11/03 10:41:01;;;;;;;1.20;0.30;;;;;;;12.02;85.92;100269.13;5071560;28;20045;-36
2021/11/03 10:43:34;;;;;;;0.73;0.30;;;;;;;11.93;86.41;100271.09;5071727;28;20388;-35
2021/11/03 10:46:16;;;;;;;1.30;0.32;;;;;;;11.91;87.39;100278.16;5071433;28;20120;-31
2021/11/03 10:49:10;;;;;;;0.63;0.20;;;;;;;11.89;88.12;100281.28;5071577;28;20051;-33
2021/11/03 10:51:41;;;;;;;0.32;0.20;;;;;;;11.89;88.82;100277.66;5069511;28;20139;-35
2021/11/03 10:54:12;;;;;;;0.68;0.20;;;;;;;11.88;88.79;100279.63;5067783;28;20044;-40
2021/11/03 10:56:50;;;;;;;2.85;0.40;;;;;;;11.82;88.80;100280.06;5071238;28;20397;-31
2021/11/03 10:59:28;;;;;;;0.95;0.15;;;;;;;11.74;89.25;100282.50;5068448;28;20087;-37
2021/11/03 11:02:19;;;;;;;1.25;0.40;;;;;;;11.67;89.67;100284.09;5070806;28;20135;-37
2021/11/03 11:04:47;;;;;;;1.90;0.63;;;;;;;11.56;89.52;100283.53;5070807;28;20533;-32
2021/11/03 11:07:23;;;;;;;2.45;0.65;;;;;;;11.52;90.03;100279.72;5071318;28;20053;-35
2021/11/03 11:09:57;;;;;;;2.50;0.55;;;;;;;11.45;90.00;100272.94;5071506;28;20037;-34
2021/11/03 11:12:30;;;;;;;1.35;0.40;;;;;;;11.42;90.42;100271.59;5071000;28;20331;-33
2021/11/03 11:15:01;;;;;;;0.80;0.38;;;;;;;11.39;90.55;100263.84;5070738;28;20048;-37
2021/11/03 11:17:36;;;;;;;0.90;0.40;;;;;;;11.41;90.83;100275.53;5070976;28;20051;-35
2021/11/03 11:20:13;;;;;;;1.15;0.30;;;;;;;11.42;90.88;100266.00;5068831;28;20044;-33
2021/11/03 11:22:57;;;;;;;1.35;0.40;;;;;;;11.45;90.82;100272.94;5070480;28;20051;-37
2021/11/03 11:25:35;;;;;;;0.98;0.20;;;;;;;11.44;90.40;100268.50;5069829;28;20052;-34
2021/11/03 11:28:20;;;;;;;0.90;0.30;;;;;;;11.47;90.84;100267.84;5070919;28;20044;-35
2021/11/03 11:30:56;;;;;;;1.17;0.40;;;;;;;11.47;90.63;100267.84;5059982;28;20062;-30
2021/11/03 11:33:29;;;;;;;2.45;0.60;;;;;;;11.44;90.51;100268.50;5070703;28;20525;-37
2021/11/03 11:36:20;;;;;;;1.20;0.38;;;;;;;11.40;90.25;100259.91;5059489;28;20040;-35
2021/11/03 11:39:01;;;;;;;1.55;0.30;;;;;;;11.35;90.61;100260.91;5070892;28;20044;-39
2021/11/03 11:41:34;;;;;;;1.67;0.30;;;;;;;11.29;90.75;100256.59;5071041;28;20049;-30